Dodson, Oregon
Current Conditions -  °F | °C
As of 2:39 PM on Thursday 20 Nov 2014 (Local Time) from K4S2 Reporting Station
Overcast Overcast  
Wind Chill: 37°   Ceiling: 10000
Heat Index: 37°   Visibility: 10mi
Dew Point: 30°   Wind: 0mph
Humidity: 75%   Direction: NA
Pressure: 30.07"   Gusts: NA
Location:  45.6281°N, 121.806°W
Report Text: K4S2 202239Z AUTO 00000KT 10SM BKN100 OVC120 03/M01 A3007 RMK AO2 SLP198 T00301010
Loading
Personal Weather Stations






























Interactive Weather Map New forecast layout! Learn more

10-Day Weather Forecast

Advertisements
Track Severe Weather on mobile